Pearl Of Scandinavia — OWFU2 — position and weather

sailwx.info

Track history (hours):
 
Tides and Currents Weather Stations Pressure Air Temp Water Temp Dewpoint Dewpoint Depression Visibility Wind Speed Wind Dir Waves Ship Positions

Pearl Of Scandinavia

Last reported at 2017-Nov-20 00:31 UTC. Time now 2017-Nov-21 08:22 UTC.
Position N 57°51' E 011°18'.

Length 176.4 m; beam 34 m; draft 6.215 m.

Type: Ship. MMSI: 219945000.

Date/timePositionNaut miles runAvg speedWind from/ knotsBaromVisibWave heightAir tempDewpointWater temp
2017-Nov-20 00:31N 57°51' E 011°18'917.1
2017-Nov-20 00:00N 57°43' E 011°23'817.0
2017-Nov-19 23:30N 57°35' E 011°29'817.1
2017-Nov-19 23:01N 57°27' E 011°35'816.5
2017-Nov-19 22:30N 57°21' E 011°44'916.9
2017-Nov-19 22:00N 57°13' E 011°53'916.6
2017-Nov-19 21:26N 57°05' E 011°59'5316.3
2017-Nov-19 18:11N 56°14' E 012°26'315.3
2017-Nov-19 18:00N 56°12' E 012°29'714.6
2017-Nov-19 17:31N 56°06' E 012°36'612.9
2017-Nov-19 17:00N 55°60' E 012°41'714.5
2017-Nov-19 16:30N 55°53' E 012°45'713.6
2017-Nov-19 16:01N 55°46' E 012°42'510.7
2017-Nov-19 15:30N 55°42' E 012°36'0 0.0
2017-Nov-19 15:00N 55°42' E 012°36'0 0.0
2017-Nov-19 14:28N 55°42' E 012°36'0 0.0
2017-Nov-19 13:58N 55°42' E 012°36'0 0.0
2017-Nov-19 13:28N 55°42' E 012°36'0 0.0
2017-Nov-19 12:58N 55°42' E 012°36'0 0.0
2017-Nov-19 12:28N 55°42' E 012°36'0 0.0
2017-Nov-19 11:58N 55°42' E 012°36'0 0.0
2017-Nov-19 11:28N 55°42' E 012°36'0 0.0
2017-Nov-19 10:58N 55°42' E 012°36'0 0.0
2017-Nov-19 10:28N 55°42' E 012°36'0 0.0
2017-Nov-19 09:58N 55°42' E 012°36'0 0.0
2017-Nov-19 09:28N 55°42' E 012°36'0 0.0
2017-Nov-19 08:58N 55°42' E 012°36'0 0.6
2017-Nov-19 08:30N 55°42' E 012°36'510.6
2017-Nov-19 08:00N 55°47' E 012°42'815.0
2017-Nov-19 07:30N 55°54' E 012°39'816.4
2017-Nov-19 07:00N 56°02' E 012°39'816.5
2017-Nov-19 06:30N 56°09' E 012°30'815.9
2017-Nov-19 06:00N 56°16' E 012°24'915.5
2017-Nov-19 05:27N 56°24' E 012°20'5415.6
2017-Nov-19 01:59N 57°16' E 011°50'816.4
2017-Nov-19 01:29N 57°23' E 011°41'816.2
2017-Nov-19 01:00N 57°29' E 011°33'816.4
2017-Nov-19 00:30N 57°37' E 011°27'917.3
2017-Nov-19 00:01N 57°45' E 011°21'917.2
2017-Nov-18 23:30N 57°53' E 011°15'916.3
2017-Nov-18 22:58N 58°01' E 011°10'715.8
2017-Nov-18 22:29N 58°08' E 011°06'815.6
2017-Nov-18 22:00N 58°16' E 011°01'815.7
2017-Nov-18 21:30N 58°23' E 010°57'815.7
2017-Nov-18 21:00N 58°30' E 010°52'815.3
2017-Nov-18 20:30N 58°38' E 010°49'815.5
2017-Nov-18 20:00N 58°45' E 010°46'815.8
2017-Nov-18 19:30N 58°53' E 010°44'816.1
2017-Nov-18 19:00N 59°01' E 010°41'816.4
2017-Nov-18 18:30N 59°09' E 010°38'816.6
2017-Nov-18 18:00N 59°17' E 010°36'816.9
2017-Nov-18 17:30N 59°26' E 010°33'816.8
2017-Nov-18 17:00N 59°34' E 010°38'714.4
2017-Nov-18 16:30N 59°41' E 010°36'714.8
2017-Nov-18 16:00N 59°48' E 010°34'714.7
2017-Nov-18 15:30N 59°54' E 010°43'1 1.4
2017-Nov-18 15:00N 59°54' E 010°45'0 0.0
2017-Nov-18 14:29N 59°54' E 010°45'0 0.0
2017-Nov-18 13:59N 59°54' E 010°45'0 0.0
2017-Nov-18 13:29N 59°54' E 010°45'0 0.0
2017-Nov-18 12:59N 59°54' E 010°45'0 0.0
2017-Nov-18 12:29N 59°54' E 010°45'0 0.0
2017-Nov-18 11:59N 59°54' E 010°45'0 0.0
2017-Nov-18 11:29N 59°54' E 010°45'0 0.0
2017-Nov-18 10:59N 59°54' E 010°45'0 0.0
2017-Nov-18 10:29N 59°54' E 010°45'0 0.0
2017-Nov-18 09:59N 59°54' E 010°45'0 0.0
2017-Nov-18 09:29N 59°54' E 010°45'0 0.0
2017-Nov-18 08:59N 59°54' E 010°45'0 0.3
2017-Nov-18 08:30N 59°54' E 010°44'612.1
2017-Nov-18 08:00N 59°50' E 010°36'713.8
2017-Nov-18 07:31N 59°43' E 010°35'713.7
2017-Nov-18 07:00N 59°36' E 010°38'815.2
2017-Nov-18 06:30N 59°29' E 010°35'714.8
2017-Nov-18 06:00N 59°22' E 010°35'816.7
2017-Nov-18 05:30N 59°13' E 010°38'816.1
2017-Nov-18 05:00N 59°05' E 010°40'815.4
2017-Nov-18 04:30N 58°58' E 010°42'815.6
2017-Nov-18 04:01N 58°50' E 010°43'815.9
2017-Nov-18 03:31N 58°42' E 010°45'816.4
2017-Nov-18 03:00N 58°34' E 010°50'816.9
2017-Nov-18 02:31N 58°26' E 010°55'917.2
2017-Nov-18 02:00N 58°18' E 010°60'1216.9
2017-Nov-18 01:17N 58°06' E 011°06'517.2
2017-Nov-18 01:00N 58°02' E 011°09'816.9
2017-Nov-18 00:30N 57°54' E 011°14'816.4
2017-Nov-18 00:00N 57°46' E 011°18'816.9
2017-Nov-17 23:30N 57°38' E 011°23'917.2
2017-Nov-17 23:00N 57°30' E 011°28'917.0
2017-Nov-17 22:30N 57°21' E 011°33'917.0
2017-Nov-17 22:00N 57°13' E 011°38'817.1
2017-Nov-17 21:30N 57°05' E 011°43'6116.4
2017-Nov-17 17:47N 56°10' E 012°30'415.8
2017-Nov-17 17:31N 56°07' E 012°34'714.4
2017-Nov-17 17:00N 56°00' E 012°41'815.3
2017-Nov-17 16:30N 55°53' E 012°44'815.3
2017-Nov-17 16:01N 55°46' E 012°41'5 9.2
2017-Nov-17 15:31N 55°42' E 012°36'0 0.0
2017-Nov-17 15:01N 55°42' E 012°36'0 0.0
2017-Nov-17 14:30N 55°42' E 012°36'0 0.0
2017-Nov-17 14:00N 55°42' E 012°36'0 0.0
2017-Nov-17 13:30N 55°42' E 012°36'0 0.0
2017-Nov-17 13:00N 55°42' E 012°36'0 0.0
2017-Nov-17 12:30N 55°42' E 012°36'0 0.0
2017-Nov-17 12:00N 55°42' E 012°36'0 0.0
2017-Nov-17 11:30N 55°42' E 012°36'0 0.0
2017-Nov-17 11:00N 55°42' E 012°36'0 0.0
2017-Nov-17 10:30N 55°42' E 012°36'0 0.0
2017-Nov-17 10:00N 55°42' E 012°36'0 0.0
2017-Nov-17 09:30N 55°42' E 012°36'0 0.0
2017-Nov-17 09:00N 55°42' E 012°36'1 2.8
2017-Nov-17 08:30N 55°43' E 012°38'713.6
2017-Nov-17 08:00N 55°49' E 012°42'815.3
2017-Nov-17 07:30N 55°57' E 012°40'816.3
2017-Nov-17 07:00N 56°05' E 012°36'815.9
2017-Nov-17 06:30N 56°11' E 012°28'815.6
2017-Nov-17 06:00N 56°19' E 012°23'5815.7
2017-Nov-17 02:18N 57°14' E 011°51'515.7
2017-Nov-17 02:00N 57°18' E 011°46'816.3
2017-Nov-17 01:29N 57°24' E 011°37'817.1
2017-Nov-17 01:00N 57°31' E 011°29'916.9
2017-Nov-17 00:30N 57°39' E 011°22'816.9
2017-Nov-17 00:00N 57°47' E 011°15'817.1
2017-Nov-16 23:30N 57°55' E 011°09'916.9
2017-Nov-16 22:57N 58°03' E 011°01'816.8
2017-Nov-16 22:30N 58°10' E 010°55'816.7
2017-Nov-16 22:00N 58°18' E 010°48'916.5
2017-Nov-16 21:27N 58°26' E 010°41'716.2
2017-Nov-16 21:00N 58°33' E 010°38'816.7
2017-Nov-16 20:30N 58°41' E 010°38'917.1
2017-Nov-16 20:00N 58°50' E 010°38'917.1
2017-Nov-16 19:30N 58°58' E 010°38'816.7
2017-Nov-16 19:00N 59°07' E 010°38'816.8
2017-Nov-16 18:30N 59°15' E 010°37'816.4
2017-Nov-16 18:00N 59°23' E 010°34'815.9
2017-Nov-16 17:30N 59°31' E 010°35'714.8
2017-Nov-16 17:00N 59°38' E 010°37'713.3
2017-Nov-16 16:30N 59°45' E 010°33'816.0
2017-Nov-16 16:01N 59°52' E 010°38'4 7.3
2017-Nov-16 15:30N 59°54' E 010°45'0 0.0
2017-Nov-16 15:00N 59°54' E 010°45'0 0.0
2017-Nov-16 14:30N 59°54' E 010°45'0 0.0
2017-Nov-16 14:00N 59°54' E 010°45'0 0.0
2017-Nov-16 13:30N 59°54' E 010°45'0 0.0
2017-Nov-16 13:00N 59°54' E 010°45'0 0.0
2017-Nov-16 12:30N 59°54' E 010°45'0 0.0
2017-Nov-16 12:00N 59°54' E 010°45'0 0.0
2017-Nov-16 11:30N 59°54' E 010°45'0 0.0
2017-Nov-16 11:00N 59°54' E 010°45'0 0.0
2017-Nov-16 10:30N 59°54' E 010°45'0 0.0
2017-Nov-16 09:59N 59°54' E 010°45'0 0.0
2017-Nov-16 09:29N 59°54' E 010°45'0 0.0
2017-Nov-16 08:59N 59°54' E 010°45'0 0.8
2017-Nov-16 08:31N 59°54' E 010°44'714.2
2017-Nov-16 08:00N 59°49' E 010°35'714.6
2017-Nov-16 07:30N 59°41' E 010°36'714.1
2017-Nov-16 07:00N 59°34' E 010°38'815.9
2017-Nov-16 06:30N 59°27' E 010°34'815.9
2017-Nov-16 06:00N 59°19' E 010°36'815.9
2017-Nov-16 05:30N 59°11' E 010°39'815.6
2017-Nov-16 05:00N 59°03' E 010°40'815.9
2017-Nov-16 04:30N 58°55' E 010°40'815.7
2017-Nov-16 04:00N 58°48' E 010°44'815.3
2017-Nov-16 03:30N 58°40' E 010°46'815.6
2017-Nov-16 03:00N 58°33' E 010°51'815.7
2017-Nov-16 02:30N 58°25' E 010°56'815.9
2017-Nov-16 02:00N 58°18' E 011°01'1116.7
2017-Nov-16 01:19N 58°07' E 011°08'517.0
2017-Nov-16 01:00N 58°02' E 011°11'916.8
2017-Nov-16 00:29N 57°54' E 011°16'816.5
2017-Nov-16 00:00N 57°46' E 011°21'816.5
2017-Nov-15 23:30N 57°39' E 011°27'917.0
2017-Nov-15 23:00N 57°31' E 011°33'816.9
2017-Nov-15 22:30N 57°23' E 011°41'817.0
2017-Nov-15 22:00N 57°16' E 011°49'816.2
2017-Nov-15 21:30N 57°09' E 011°56'6315.6
2017-Nov-15 17:28N 56°09' E 012°31'715.9
2017-Nov-15 17:00N 56°03' E 012°39'816.3
2017-Nov-15 16:30N 55°55' E 012°44'815.8
2017-Nov-15 16:00N 55°48' E 012°43'612.8
2017-Nov-15 15:30N 55°42' E 012°36'0 0.7
2017-Nov-15 15:00N 55°42' E 012°36'0 0.0
2017-Nov-15 14:28N 55°42' E 012°36'0 0.0
2017-Nov-15 13:58N 55°42' E 012°36'0 0.0
2017-Nov-15 13:28N 55°42' E 012°36'0 0.0
2017-Nov-15 12:58N 55°42' E 012°36'0 0.0
2017-Nov-15 12:28N 55°42' E 012°36'0 0.0
2017-Nov-15 11:58N 55°42' E 012°36'0 0.0
2017-Nov-15 11:28N 55°42' E 012°36'0 0.0
2017-Nov-15 10:58N 55°42' E 012°36'0 0.0
2017-Nov-15 10:28N 55°42' E 012°36'0 0.0
2017-Nov-15 09:55N 55°42' E 012°36'0 0.0
2017-Nov-15 09:28N 55°42' E 012°36'0 0.0
2017-Nov-15 08:58N 55°42' E 012°36'0 0.8
2017-Nov-15 08:31N 55°42' E 012°36'611.2
2017-Nov-15 08:00N 55°47' E 012°41'714.0
2017-Nov-15 07:31N 55°54' E 012°39'714.4
2017-Nov-15 07:00N 56°01' E 012°40'714.2
2017-Nov-15 06:31N 56°07' E 012°32'715.0
2017-Nov-15 06:01N 56°14' E 012°26'6215.5
2017-Nov-15 01:59N 57°13' E 011°52'816.2
2017-Nov-15 01:30N 57°20' E 011°45'816.1
2017-Nov-15 01:00N 57°27' E 011°38'816.2
2017-Nov-15 00:31N 57°34' E 011°30'816.3
2017-Nov-15 00:00N 57°41' E 011°24'816.1
2017-Nov-14 23:30N 57°49' E 011°18'816.1
2017-Nov-14 23:00N 57°56' E 011°12'816.0
2017-Nov-14 22:30N 58°04' E 011°08'815.7
2017-Nov-14 22:00N 58°11' E 011°04'815.8
2017-Nov-14 21:30N 58°19' E 011°00'1016.3
2017-Nov-14 20:54N 58°28' E 010°55'716.6
2017-Nov-14 20:30N 58°35' E 010°51'917.1
2017-Nov-14 20:01N 58°43' E 010°47'917.6
2017-Nov-14 19:30N 58°52' E 010°44'917.8
2017-Nov-14 19:01N 59°00' E 010°41'917.4
2017-Nov-14 18:30N 59°09' E 010°39'917.3
2017-Nov-14 18:00N 59°18' E 010°36'917.4
2017-Nov-14 17:31N 59°26' E 010°33'817.0
2017-Nov-14 17:01N 59°34' E 010°38'714.7
2017-Nov-14 16:30N 59°42' E 010°36'815.8
2017-Nov-14 16:01N 59°49' E 010°34'713.4
2017-Nov-14 15:30N 59°54' E 010°44'0 0.3
2017-Nov-14 15:00N 59°54' E 010°45'0 0.0
2017-Nov-14 14:29N 59°54' E 010°45'0 0.0
2017-Nov-14 13:59N 59°54' E 010°45'0 0.0
2017-Nov-14 13:29N 59°54' E 010°45'0 0.0
2017-Nov-14 12:59N 59°54' E 010°45'0 0.0
2017-Nov-14 12:29N 59°54' E 010°45'0 0.0
2017-Nov-14 11:59N 59°54' E 010°45'0 0.0
2017-Nov-14 11:29N 59°54' E 010°45'0 0.0
2017-Nov-14 10:59N 59°54' E 010°45'0 0.0
2017-Nov-14 10:29N 59°54' E 010°45'0 0.0
2017-Nov-14 09:59N 59°54' E 010°45'0 0.0
2017-Nov-14 09:29N 59°54' E 010°45'0 0.0
2017-Nov-14 08:59N 59°54' E 010°45'1 1.6
2017-Nov-14 08:30N 59°54' E 010°43'715.0
2017-Nov-14 08:00N 59°48' E 010°34'714.3
2017-Nov-14 07:30N 59°41' E 010°37'713.2
2017-Nov-14 07:00N 59°34' E 010°38'815.7
2017-Nov-14 06:30N 59°27' E 010°34'815.5
2017-Nov-14 06:00N 59°19' E 010°36'815.5
2017-Nov-14 05:30N 59°12' E 010°39'815.5
2017-Nov-14 05:00N 59°04' E 010°39'815.8
2017-Nov-14 04:30N 58°56' E 010°38'815.7
2017-Nov-14 04:00N 58°48' E 010°37'815.6
2017-Nov-14 03:30N 58°40' E 010°38'815.8
2017-Nov-14 03:00N 58°33' E 010°39'816.6
2017-Nov-14 02:30N 58°24' E 010°42'1916.6
2017-Nov-14 01:20N 58°06' E 010°54'516.3
2017-Nov-14 01:00N 58°01' E 010°58'816.6
2017-Nov-14 00:30N 57°53' E 011°03'816.9
2017-Nov-14 00:00N 57°45' E 011°08'816.7
2017-Nov-13 23:30N 57°38' E 011°16'916.8
2017-Nov-13 23:00N 57°31' E 011°25'816.6
2017-Nov-13 22:30N 57°24' E 011°31'917.0
2017-Nov-13 22:00N 57°15' E 011°36'8 0.4
2017-Nov-13 01:53N 57°14' E 011°50'615.7
2017-Nov-13 01:30N 57°19' E 011°44'815.7
2017-Nov-13 01:01N 57°26' E 011°37'816.5
2017-Nov-13 00:31N 57°33' E 011°29'816.2
2017-Nov-13 00:00N 57°40' E 011°23'816.1
2017-Nov-12 23:30N 57°48' E 011°18'916.5
2017-Nov-12 22:59N 57°56' E 011°13'816.6
2017-Nov-12 22:29N 58°04' E 011°09'816.2
2017-Nov-12 21:58N 58°12' E 011°04'816.2
2017-Nov-12 21:30N 58°19' E 011°00'816.6
2017-Nov-12 21:01N 58°27' E 010°56'816.6
2017-Nov-12 20:30N 58°35' E 010°51'816.7
2017-Nov-12 20:01N 58°43' E 010°47'917.1
2017-Nov-12 19:31N 58°52' E 010°44'917.4
2017-Nov-12 19:01N 59°00' E 010°41'917.9
2017-Nov-12 18:31N 59°09' E 010°39'918.0
2017-Nov-12 18:01N 59°18' E 010°36'918.0
2017-Nov-12 17:31N 59°27' E 010°33'917.5
2017-Nov-12 17:01N 59°35' E 010°38'814.9
2017-Nov-12 16:30N 59°43' E 010°35'816.3
2017-Nov-12 16:00N 59°51' E 010°35'611.6
2017-Nov-12 15:30N 59°54' E 010°45'0 0.0
2017-Nov-12 15:00N 59°54' E 010°45'0 0.0
2017-Nov-12 14:27N 59°54' E 010°45'0 0.0
2017-Nov-12 13:57N 59°54' E 010°45'0 0.0
2017-Nov-12 13:27N 59°54' E 010°45'0 0.0
2017-Nov-12 12:57N 59°54' E 010°45'0 0.0
2017-Nov-12 12:27N 59°54' E 010°45'0 0.0
2017-Nov-12 11:57N 59°54' E 010°45'0 0.0
2017-Nov-12 11:27N 59°54' E 010°45'0 0.0
2017-Nov-12 10:57N 59°54' E 010°45'0 0.0
2017-Nov-12 10:27N 59°54' E 010°45'0 0.0
2017-Nov-12 09:57N 59°54' E 010°45'0 0.0
2017-Nov-12 09:27N 59°54' E 010°45'0 0.0
2017-Nov-12 08:57N 59°54' E 010°45'0 0.3
2017-Nov-12 08:30N 59°54' E 010°44'713.5
2017-Nov-12 08:00N 59°49' E 010°35'814.9
2017-Nov-12 07:30N 59°42' E 010°36'714.2
2017-Nov-12 07:00N 59°35' E 010°38'815.9
2017-Nov-12 06:30N 59°27' E 010°34'815.6
2017-Nov-12 06:00N 59°20' E 010°36'815.6
2017-Nov-12 05:30N 59°12' E 010°39'815.3
2017-Nov-12 05:00N 59°04' E 010°41'815.6
2017-Nov-12 04:30N 58°57' E 010°42'815.8
2017-Nov-12 04:00N 58°49' E 010°44'815.6
2017-Nov-12 03:30N 58°41' E 010°46'815.8
2017-Nov-12 03:00N 58°33' E 010°50'816.0
2017-Nov-12 02:30N 58°26' E 010°55'1316.5
2017-Nov-12 01:44N 58°14' E 011°02'616.7
2017-Nov-12 01:22N 58°08' E 011°06'616.8
2017-Nov-12 01:00N 58°02' E 011°09'817.0
2017-Nov-12 00:30N 57°54' E 011°14'816.9
2017-Nov-12 00:00N 57°46' E 011°19'916.7
2017-Nov-11 23:30N 57°38' E 011°23'816.3
2017-Nov-11 23:01N 57°30' E 011°28'816.1
2017-Nov-11 22:30N 57°22' E 011°32'816.4
2017-Nov-11 22:00N 57°14' E 011°37'816.2
2017-Nov-11 21:30N 57°07' E 011°41'6415.8
2017-Nov-11 17:29N 56°09' E 012°31'715.0
2017-Nov-11 17:00N 56°04' E 012°39'714.9
2017-Nov-11 16:30N 55°56' E 012°43'815.3
2017-Nov-11 16:00N 55°49' E 012°44'714.2
2017-Nov-11 15:30N 55°43' E 012°37'1 2.0
2017-Nov-11 15:00N 55°42' E 012°36'0 0.0
2017-Nov-11 14:30N 55°42' E 012°36'0 0.0
2017-Nov-11 14:00N 55°42' E 012°36'0 0.0
2017-Nov-11 13:30N 55°42' E 012°36'0 0.0
2017-Nov-11 13:00N 55°42' E 012°36'0 0.0
2017-Nov-11 12:30N 55°42' E 012°36'0 0.0
2017-Nov-11 12:00N 55°42' E 012°36'0 0.0
2017-Nov-11 11:30N 55°42' E 012°36'0 0.0
2017-Nov-11 11:00N 55°42' E 012°36'0 0.0
2017-Nov-11 10:30N 55°42' E 012°36'0 0.0
2017-Nov-11 10:00N 55°42' E 012°36'0 0.0
2017-Nov-11 09:30N 55°42' E 012°36'0 0.0
2017-Nov-11 09:00N 55°42' E 012°36'0 0.6
2017-Nov-11 08:30N 55°42' E 012°36'5 9.2
2017-Nov-11 08:00N 55°46' E 012°41'714.8
2017-Nov-11 07:31N 55°53' E 012°40'917.4
2017-Nov-11 07:00N 56°02' E 012°39'917.4
2017-Nov-11 06:30N 56°09' E 012°30'815.4
2017-Nov-11 06:01N 56°16' E 012°24'6115.5
2017-Nov-11 02:06N 57°14' E 011°52'216.0
2017-Nov-11 01:57N 57°16' E 011°50'716.2
2017-Nov-11 01:30N 57°22' E 011°42'816.5
2017-Nov-11 01:00N 57°29' E 011°35'917.2
2017-Nov-11 00:30N 57°37' E 011°27'917.4
2017-Nov-11 00:00N 57°45' E 011°20'916.7
2017-Nov-10 23:29N 57°53' E 011°15'816.1
2017-Nov-10 23:00N 58°00' E 011°11'815.9
2017-Nov-10 22:30N 58°08' E 011°06'815.8
2017-Nov-10 22:00N 58°16' E 011°02'815.3
2017-Nov-10 21:30N 58°23' E 010°58'815.7
2017-Nov-10 21:00N 58°30' E 010°54'816.2
2017-Nov-10 20:30N 58°38' E 010°50'816.6
2017-Nov-10 20:00N 58°46' E 010°46'816.2
2017-Nov-10 19:30N 58°54' E 010°43'816.5
2017-Nov-10 19:00N 59°02' E 010°41'816.8
2017-Nov-10 18:30N 59°11' E 010°38'917.2
2017-Nov-10 18:00N 59°19' E 010°35'917.2
2017-Nov-10 17:30N 59°28' E 010°33'917.1
2017-Nov-10 17:00N 59°36' E 010°38'714.6
2017-Nov-10 16:30N 59°43' E 010°35'815.9
2017-Nov-10 16:00N 59°51' E 010°36'610.9
2017-Nov-10 15:30N 59°54' E 010°45'0 0.0
2017-Nov-10 14:59N 59°54' E 010°45'0 0.0
2017-Nov-10 14:29N 59°54' E 010°45'0 0.0
2017-Nov-10 13:59N 59°54' E 010°45'0 0.0
2017-Nov-10 13:29N 59°54' E 010°45'0 0.0
2017-Nov-10 12:59N 59°54' E 010°45'0 0.0
2017-Nov-10 12:29N 59°54' E 010°45'0 0.0
2017-Nov-10 11:59N 59°54' E 010°45'0 0.0
2017-Nov-10 11:29N 59°54' E 010°45'0 0.0
2017-Nov-10 10:59N 59°54' E 010°45'0 0.0
2017-Nov-10 10:29N 59°54' E 010°45'0 0.0
2017-Nov-10 09:59N 59°54' E 010°45'0 0.0
2017-Nov-10 09:29N 59°54' E 010°45'0 0.0
2017-Nov-10 08:59N 59°54' E 010°45'1 1.1
2017-Nov-10 08:29N 59°54' E 010°44'612.9
2017-Nov-10 08:01N 59°49' E 010°35'714.7
2017-Nov-10 07:30N 59°42' E 010°36'714.0
2017-Nov-10 07:00N 59°35' E 010°38'816.1
2017-Nov-10 06:30N 59°27' E 010°34'816.2
2017-Nov-10 06:00N 59°19' E 010°36'816.5
2017-Nov-10 05:30N 59°11' E 010°39'816.4
2017-Nov-10 05:00N 59°03' E 010°41'816.0
2017-Nov-10 04:31N 58°55' E 010°44'815.7
2017-Nov-10 04:00N 58°47' E 010°46'815.5
2017-Nov-10 03:30N 58°40' E 010°48'816.0
2017-Nov-10 03:00N 58°32' E 010°52'815.8
2017-Nov-10 02:30N 58°25' E 010°58'816.1
2017-Nov-10 02:00N 58°17' E 011°01'1316.6
2017-Nov-10 01:13N 58°04' E 011°09'416.7
2017-Nov-10 01:00N 58°01' E 011°11'  
Track history (hours):
 
Tides and Currents Weather Stations Pressure Air Temp Water Temp Dewpoint Dewpoint Depression Visibility Wind Speed Wind Dir Waves Ship Positions

Pearl Of Scandinavia

Last reported at 2017-Nov-20 00:31 UTC. Time now 2017-Nov-21 08:22 UTC.
Position N 57°51' E 011°18'.

Length 176.4 m; beam 34 m; draft 6.215 m.

Type: Ship. MMSI: 219945000.

Date/timePositionNaut miles runAvg speedWind from/ knotsBaromVisibWave heightAir tempDewpointWater temp
2017-Nov-20 00:31N 57°51' E 011°18'917.1
2017-Nov-20 00:00N 57°43' E 011°23'817.0
2017-Nov-19 23:30N 57°35' E 011°29'817.1
2017-Nov-19 23:01N 57°27' E 011°35'816.5
2017-Nov-19 22:30N 57°21' E 011°44'916.9
2017-Nov-19 22:00N 57°13' E 011°53'916.6
2017-Nov-19 21:26N 57°05' E 011°59'5316.3
2017-Nov-19 18:11N 56°14' E 012°26'315.3
2017-Nov-19 18:00N 56°12' E 012°29'714.6
2017-Nov-19 17:31N 56°06' E 012°36'612.9
2017-Nov-19 17:00N 55°60' E 012°41'714.5
2017-Nov-19 16:30N 55°53' E 012°45'713.6
2017-Nov-19 16:01N 55°46' E 012°42'510.7
2017-Nov-19 15:30N 55°42' E 012°36'0 0.0
2017-Nov-19 15:00N 55°42' E 012°36'0 0.0
2017-Nov-19 14:28N 55°42' E 012°36'0 0.0
2017-Nov-19 13:58N 55°42' E 012°36'0 0.0
2017-Nov-19 13:28N 55°42' E 012°36'0 0.0
2017-Nov-19 12:58N 55°42' E 012°36'0 0.0
2017-Nov-19 12:28N 55°42' E 012°36'0 0.0
2017-Nov-19 11:58N 55°42' E 012°36'0 0.0
2017-Nov-19 11:28N 55°42' E 012°36'0 0.0
2017-Nov-19 10:58N 55°42' E 012°36'0 0.0
2017-Nov-19 10:28N 55°42' E 012°36'0 0.0
2017-Nov-19 09:58N 55°42' E 012°36'0 0.0
2017-Nov-19 09:28N 55°42' E 012°36'0 0.0
2017-Nov-19 08:58N 55°42' E 012°36'0 0.6
2017-Nov-19 08:30N 55°42' E 012°36'510.6
2017-Nov-19 08:00N 55°47' E 012°42'815.0
2017-Nov-19 07:30N 55°54' E 012°39'816.4
2017-Nov-19 07:00N 56°02' E 012°39'816.5
2017-Nov-19 06:30N 56°09' E 012°30'815.9
2017-Nov-19 06:00N 56°16' E 012°24'915.5
2017-Nov-19 05:27N 56°24' E 012°20'5415.6
2017-Nov-19 01:59N 57°16' E 011°50'816.4
2017-Nov-19 01:29N 57°23' E 011°41'816.2
2017-Nov-19 01:00N 57°29' E 011°33'816.4
2017-Nov-19 00:30N 57°37' E 011°27'917.3
2017-Nov-19 00:01N 57°45' E 011°21'917.2
2017-Nov-18 23:30N 57°53' E 011°15'916.3
2017-Nov-18 22:58N 58°01' E 011°10'715.8
2017-Nov-18 22:29N 58°08' E 011°06'815.6
2017-Nov-18 22:00N 58°16' E 011°01'815.7
2017-Nov-18 21:30N 58°23' E 010°57'815.7
2017-Nov-18 21:00N 58°30' E 010°52'815.3
2017-Nov-18 20:30N 58°38' E 010°49'815.5
2017-Nov-18 20:00N 58°45' E 010°46'815.8
2017-Nov-18 19:30N 58°53' E 010°44'816.1
2017-Nov-18 19:00N 59°01' E 010°41'816.4
2017-Nov-18 18:30N 59°09' E 010°38'816.6
2017-Nov-18 18:00N 59°17' E 010°36'816.9
2017-Nov-18 17:30N 59°26' E 010°33'816.8
2017-Nov-18 17:00N 59°34' E 010°38'714.4
2017-Nov-18 16:30N 59°41' E 010°36'714.8
2017-Nov-18 16:00N 59°48' E 010°34'714.7
2017-Nov-18 15:30N 59°54' E 010°43'1 1.4
2017-Nov-18 15:00N 59°54' E 010°45'0 0.0
2017-Nov-18 14:29N 59°54' E 010°45'0 0.0
2017-Nov-18 13:59N 59°54' E 010°45'0 0.0
2017-Nov-18 13:29N 59°54' E 010°45'0 0.0
2017-Nov-18 12:59N 59°54' E 010°45'0 0.0
2017-Nov-18 12:29N 59°54' E 010°45'0 0.0
2017-Nov-18 11:59N 59°54' E 010°45'0 0.0
2017-Nov-18 11:29N 59°54' E 010°45'0 0.0
2017-Nov-18 10:59N 59°54' E 010°45'0 0.0
2017-Nov-18 10:29N 59°54' E 010°45'0 0.0
2017-Nov-18 09:59N 59°54' E 010°45'0 0.0
2017-Nov-18 09:29N 59°54' E 010°45'0 0.0
2017-Nov-18 08:59N 59°54' E 010°45'0 0.3
2017-Nov-18 08:30N 59°54' E 010°44'612.1
2017-Nov-18 08:00N 59°50' E 010°36'713.8
2017-Nov-18 07:31N 59°43' E 010°35'713.7
2017-Nov-18 07:00N 59°36' E 010°38'815.2
2017-Nov-18 06:30N 59°29' E 010°35'714.8
2017-Nov-18 06:00N 59°22' E 010°35'816.7
2017-Nov-18 05:30N 59°13' E 010°38'816.1
2017-Nov-18 05:00N 59°05' E 010°40'815.4
2017-Nov-18 04:30N 58°58' E 010°42'815.6
2017-Nov-18 04:01N 58°50' E 010°43'815.9
2017-Nov-18 03:31N 58°42' E 010°45'816.4
2017-Nov-18 03:00N 58°34' E 010°50'816.9
2017-Nov-18 02:31N 58°26' E 010°55'917.2
2017-Nov-18 02:00N 58°18' E 010°60'1216.9
2017-Nov-18 01:17N 58°06' E 011°06'517.2
2017-Nov-18 01:00N 58°02' E 011°09'816.9
2017-Nov-18 00:30N 57°54' E 011°14'816.4
2017-Nov-18 00:00N 57°46' E 011°18'816.9
2017-Nov-17 23:30N 57°38' E 011°23'917.2
2017-Nov-17 23:00N 57°30' E 011°28'917.0
2017-Nov-17 22:30N 57°21' E 011°33'917.0
2017-Nov-17 22:00N 57°13' E 011°38'817.1
2017-Nov-17 21:30N 57°05' E 011°43'6116.4
2017-Nov-17 17:47N 56°10' E 012°30'415.8
2017-Nov-17 17:31N 56°07' E 012°34'714.4
2017-Nov-17 17:00N 56°00' E 012°41'815.3
2017-Nov-17 16:30N 55°53' E 012°44'815.3
2017-Nov-17 16:01N 55°46' E 012°41'5 9.2
2017-Nov-17 15:31N 55°42' E 012°36'0 0.0
2017-Nov-17 15:01N 55°42' E 012°36'0 0.0
2017-Nov-17 14:30N 55°42' E 012°36'0 0.0
2017-Nov-17 14:00N 55°42' E 012°36'0 0.0
2017-Nov-17 13:30N 55°42' E 012°36'0 0.0
2017-Nov-17 13:00N 55°42' E 012°36'0 0.0
2017-Nov-17 12:30N 55°42' E 012°36'0 0.0
2017-Nov-17 12:00N 55°42' E 012°36'0 0.0
2017-Nov-17 11:30N 55°42' E 012°36'0 0.0
2017-Nov-17 11:00N 55°42' E 012°36'0 0.0
2017-Nov-17 10:30N 55°42' E 012°36'0 0.0
2017-Nov-17 10:00N 55°42' E 012°36'0 0.0
2017-Nov-17 09:30N 55°42' E 012°36'0 0.0
2017-Nov-17 09:00N 55°42' E 012°36'1 2.8
2017-Nov-17 08:30N 55°43' E 012°38'713.6
2017-Nov-17 08:00N 55°49' E 012°42'815.3
2017-Nov-17 07:30N 55°57' E 012°40'816.3
2017-Nov-17 07:00N 56°05' E 012°36'815.9
2017-Nov-17 06:30N 56°11' E 012°28'815.6
2017-Nov-17 06:00N 56°19' E 012°23'5815.7
2017-Nov-17 02:18N 57°14' E 011°51'515.7
2017-Nov-17 02:00N 57°18' E 011°46'816.3
2017-Nov-17 01:29N 57°24' E 011°37'817.1
2017-Nov-17 01:00N 57°31' E 011°29'916.9
2017-Nov-17 00:30N 57°39' E 011°22'816.9
2017-Nov-17 00:00N 57°47' E 011°15'817.1
2017-Nov-16 23:30N 57°55' E 011°09'916.9
2017-Nov-16 22:57N 58°03' E 011°01'816.8
2017-Nov-16 22:30N 58°10' E 010°55'816.7
2017-Nov-16 22:00N 58°18' E 010°48'916.5
2017-Nov-16 21:27N 58°26' E 010°41'716.2
2017-Nov-16 21:00N 58°33' E 010°38'816.7
2017-Nov-16 20:30N 58°41' E 010°38'917.1
2017-Nov-16 20:00N 58°50' E 010°38'917.1
2017-Nov-16 19:30N 58°58' E 010°38'816.7
2017-Nov-16 19:00N 59°07' E 010°38'816.8
2017-Nov-16 18:30N 59°15' E 010°37'816.4
2017-Nov-16 18:00N 59°23' E 010°34'815.9
2017-Nov-16 17:30N 59°31' E 010°35'714.8
2017-Nov-16 17:00N 59°38' E 010°37'713.3
2017-Nov-16 16:30N 59°45' E 010°33'816.0
2017-Nov-16 16:01N 59°52' E 010°38'4 7.3
2017-Nov-16 15:30N 59°54' E 010°45'0 0.0
2017-Nov-16 15:00N 59°54' E 010°45'0 0.0
2017-Nov-16 14:30N 59°54' E 010°45'0 0.0
2017-Nov-16 14:00N 59°54' E 010°45'0 0.0
2017-Nov-16 13:30N 59°54' E 010°45'0 0.0
2017-Nov-16 13:00N 59°54' E 010°45'0 0.0
2017-Nov-16 12:30N 59°54' E 010°45'0 0.0
2017-Nov-16 12:00N 59°54' E 010°45'0 0.0
2017-Nov-16 11:30N 59°54' E 010°45'0 0.0
2017-Nov-16 11:00N 59°54' E 010°45'0 0.0
2017-Nov-16 10:30N 59°54' E 010°45'0 0.0
2017-Nov-16 09:59N 59°54' E 010°45'0 0.0
2017-Nov-16 09:29N 59°54' E 010°45'0 0.0
2017-Nov-16 08:59N 59°54' E 010°45'0 0.8
2017-Nov-16 08:31N 59°54' E 010°44'714.2
2017-Nov-16 08:00N 59°49' E 010°35'714.6
2017-Nov-16 07:30N 59°41' E 010°36'714.1
2017-Nov-16 07:00N 59°34' E 010°38'815.9
2017-Nov-16 06:30N 59°27' E 010°34'815.9
2017-Nov-16 06:00N 59°19' E 010°36'815.9
2017-Nov-16 05:30N 59°11' E 010°39'815.6
2017-Nov-16 05:00N 59°03' E 010°40'815.9
2017-Nov-16 04:30N 58°55' E 010°40'815.7
2017-Nov-16 04:00N 58°48' E 010°44'815.3
2017-Nov-16 03:30N 58°40' E 010°46'815.6
2017-Nov-16 03:00N 58°33' E 010°51'815.7
2017-Nov-16 02:30N 58°25' E 010°56'815.9
2017-Nov-16 02:00N 58°18' E 011°01'1116.7
2017-Nov-16 01:19N 58°07' E 011°08'517.0
2017-Nov-16 01:00N 58°02' E 011°11'916.8
2017-Nov-16 00:29N 57°54' E 011°16'816.5
2017-Nov-16 00:00N 57°46' E 011°21'816.5
2017-Nov-15 23:30N 57°39' E 011°27'917.0
2017-Nov-15 23:00N 57°31' E 011°33'816.9
2017-Nov-15 22:30N 57°23' E 011°41'817.0
2017-Nov-15 22:00N 57°16' E 011°49'816.2
2017-Nov-15 21:30N 57°09' E 011°56'6315.6
2017-Nov-15 17:28N 56°09' E 012°31'715.9
2017-Nov-15 17:00N 56°03' E 012°39'816.3
2017-Nov-15 16:30N 55°55' E 012°44'815.8
2017-Nov-15 16:00N 55°48' E 012°43'612.8
2017-Nov-15 15:30N 55°42' E 012°36'0 0.7
2017-Nov-15 15:00N 55°42' E 012°36'0 0.0
2017-Nov-15 14:28N 55°42' E 012°36'0 0.0
2017-Nov-15 13:58N 55°42' E 012°36'0 0.0
2017-Nov-15 13:28N 55°42' E 012°36'0 0.0
2017-Nov-15 12:58N 55°42' E 012°36'0 0.0
2017-Nov-15 12:28N 55°42' E 012°36'0 0.0
2017-Nov-15 11:58N 55°42' E 012°36'0 0.0
2017-Nov-15 11:28N 55°42' E 012°36'0 0.0
2017-Nov-15 10:58N 55°42' E 012°36'0 0.0
2017-Nov-15 10:28N 55°42' E 012°36'0 0.0
2017-Nov-15 09:55N 55°42' E 012°36'0 0.0
2017-Nov-15 09:28N 55°42' E 012°36'0 0.0
2017-Nov-15 08:58N 55°42' E 012°36'0 0.8
2017-Nov-15 08:31N 55°42' E 012°36'611.2
2017-Nov-15 08:00N 55°47' E 012°41'714.0
2017-Nov-15 07:31N 55°54' E 012°39'714.4
2017-Nov-15 07:00N 56°01' E 012°40'714.2
2017-Nov-15 06:31N 56°07' E 012°32'715.0
2017-Nov-15 06:01N 56°14' E 012°26'6215.5
2017-Nov-15 01:59N 57°13' E 011°52'816.2
2017-Nov-15 01:30N 57°20' E 011°45'816.1
2017-Nov-15 01:00N 57°27' E 011°38'816.2
2017-Nov-15 00:31N 57°34' E 011°30'816.3
2017-Nov-15 00:00N 57°41' E 011°24'816.1
2017-Nov-14 23:30N 57°49' E 011°18'816.1
2017-Nov-14 23:00N 57°56' E 011°12'816.0
2017-Nov-14 22:30N 58°04' E 011°08'815.7
2017-Nov-14 22:00N 58°11' E 011°04'815.8
2017-Nov-14 21:30N 58°19' E 011°00'1016.3
2017-Nov-14 20:54N 58°28' E 010°55'716.6
2017-Nov-14 20:30N 58°35' E 010°51'917.1
2017-Nov-14 20:01N 58°43' E 010°47'917.6
2017-Nov-14 19:30N 58°52' E 010°44'917.8
2017-Nov-14 19:01N 59°00' E 010°41'917.4
2017-Nov-14 18:30N 59°09' E 010°39'917.3
2017-Nov-14 18:00N 59°18' E 010°36'917.4
2017-Nov-14 17:31N 59°26' E 010°33'817.0
2017-Nov-14 17:01N 59°34' E 010°38'714.7
2017-Nov-14 16:30N 59°42' E 010°36'815.8
2017-Nov-14 16:01N 59°49' E 010°34'713.4
2017-Nov-14 15:30N 59°54' E 010°44'0 0.3
2017-Nov-14 15:00N 59°54' E 010°45'0 0.0
2017-Nov-14 14:29N 59°54' E 010°45'0 0.0
2017-Nov-14 13:59N 59°54' E 010°45'0 0.0
2017-Nov-14 13:29N 59°54' E 010°45'0 0.0
2017-Nov-14 12:59N 59°54' E 010°45'0 0.0
2017-Nov-14 12:29N 59°54' E 010°45'0 0.0
2017-Nov-14 11:59N 59°54' E 010°45'0 0.0
2017-Nov-14 11:29N 59°54' E 010°45'0 0.0
2017-Nov-14 10:59N 59°54' E 010°45'0 0.0
2017-Nov-14 10:29N 59°54' E 010°45'0 0.0
2017-Nov-14 09:59N 59°54' E 010°45'0 0.0
2017-Nov-14 09:29N 59°54' E 010°45'0 0.0
2017-Nov-14 08:59N 59°54' E 010°45'1 1.6
2017-Nov-14 08:30N 59°54' E 010°43'715.0
2017-Nov-14 08:00N 59°48' E 010°34'714.3
2017-Nov-14 07:30N 59°41' E 010°37'713.2
2017-Nov-14 07:00N 59°34' E 010°38'815.7
2017-Nov-14 06:30N 59°27' E 010°34'815.5
2017-Nov-14 06:00N 59°19' E 010°36'815.5
2017-Nov-14 05:30N 59°12' E 010°39'815.5
2017-Nov-14 05:00N 59°04' E 010°39'815.8
2017-Nov-14 04:30N 58°56' E 010°38'815.7
2017-Nov-14 04:00N 58°48' E 010°37'815.6
2017-Nov-14 03:30N 58°40' E 010°38'815.8
2017-Nov-14 03:00N 58°33' E 010°39'816.6
2017-Nov-14 02:30N 58°24' E 010°42'1916.6
2017-Nov-14 01:20N 58°06' E 010°54'516.3
2017-Nov-14 01:00N 58°01' E 010°58'816.6
2017-Nov-14 00:30N 57°53' E 011°03'816.9
2017-Nov-14 00:00N 57°45' E 011°08'816.7
2017-Nov-13 23:30N 57°38' E 011°16'916.8
2017-Nov-13 23:00N 57°31' E 011°25'816.6
2017-Nov-13 22:30N 57°24' E 011°31'917.0
2017-Nov-13 22:00N 57°15' E 011°36'8 0.4
2017-Nov-13 01:53N 57°14' E 011°50'615.7
2017-Nov-13 01:30N 57°19' E 011°44'815.7
2017-Nov-13 01:01N 57°26' E 011°37'816.5
2017-Nov-13 00:31N 57°33' E 011°29'816.2
2017-Nov-13 00:00N 57°40' E 011°23'816.1
2017-Nov-12 23:30N 57°48' E 011°18'916.5
2017-Nov-12 22:59N 57°56' E 011°13'816.6
2017-Nov-12 22:29N 58°04' E 011°09'816.2
2017-Nov-12 21:58N 58°12' E 011°04'816.2
2017-Nov-12 21:30N 58°19' E 011°00'816.6
2017-Nov-12 21:01N 58°27' E 010°56'816.6
2017-Nov-12 20:30N 58°35' E 010°51'816.7
2017-Nov-12 20:01N 58°43' E 010°47'917.1
2017-Nov-12 19:31N 58°52' E 010°44'917.4
2017-Nov-12 19:01N 59°00' E 010°41'917.9
2017-Nov-12 18:31N 59°09' E 010°39'918.0
2017-Nov-12 18:01N 59°18' E 010°36'918.0
2017-Nov-12 17:31N 59°27' E 010°33'917.5
2017-Nov-12 17:01N 59°35' E 010°38'814.9
2017-Nov-12 16:30N 59°43' E 010°35'816.3
2017-Nov-12 16:00N 59°51' E 010°35'611.6
2017-Nov-12 15:30N 59°54' E 010°45'0 0.0
2017-Nov-12 15:00N 59°54' E 010°45'0 0.0
2017-Nov-12 14:27N 59°54' E 010°45'0 0.0
2017-Nov-12 13:57N 59°54' E 010°45'0 0.0
2017-Nov-12 13:27N 59°54' E 010°45'0 0.0
2017-Nov-12 12:57N 59°54' E 010°45'0 0.0
2017-Nov-12 12:27N 59°54' E 010°45'0 0.0
2017-Nov-12 11:57N 59°54' E 010°45'0 0.0
2017-Nov-12 11:27N 59°54' E 010°45'0 0.0
2017-Nov-12 10:57N 59°54' E 010°45'0 0.0
2017-Nov-12 10:27N 59°54' E 010°45'0 0.0
2017-Nov-12 09:57N 59°54' E 010°45'0 0.0
2017-Nov-12 09:27N 59°54' E 010°45'0 0.0
2017-Nov-12 08:57N 59°54' E 010°45'0 0.3
2017-Nov-12 08:30N 59°54' E 010°44'713.5
2017-Nov-12 08:00N 59°49' E 010°35'814.9
2017-Nov-12 07:30N 59°42' E 010°36'714.2
2017-Nov-12 07:00N 59°35' E 010°38'815.9
2017-Nov-12 06:30N 59°27' E 010°34'815.6
2017-Nov-12 06:00N 59°20' E 010°36'815.6
2017-Nov-12 05:30N 59°12' E 010°39'815.3
2017-Nov-12 05:00N 59°04' E 010°41'815.6
2017-Nov-12 04:30N 58°57' E 010°42'815.8
2017-Nov-12 04:00N 58°49' E 010°44'815.6
2017-Nov-12 03:30N 58°41' E 010°46'815.8
2017-Nov-12 03:00N 58°33' E 010°50'816.0
2017-Nov-12 02:30N 58°26' E 010°55'1316.5
2017-Nov-12 01:44N 58°14' E 011°02'616.7
2017-Nov-12 01:22N 58°08' E 011°06'616.8
2017-Nov-12 01:00N 58°02' E 011°09'817.0
2017-Nov-12 00:30N 57°54' E 011°14'816.9
2017-Nov-12 00:00N 57°46' E 011°19'916.7
2017-Nov-11 23:30N 57°38' E 011°23'816.3
2017-Nov-11 23:01N 57°30' E 011°28'816.1
2017-Nov-11 22:30N 57°22' E 011°32'816.4
2017-Nov-11 22:00N 57°14' E 011°37'816.2
2017-Nov-11 21:30N 57°07' E 011°41'6415.8
2017-Nov-11 17:29N 56°09' E 012°31'715.0
2017-Nov-11 17:00N 56°04' E 012°39'714.9
2017-Nov-11 16:30N 55°56' E 012°43'815.3
2017-Nov-11 16:00N 55°49' E 012°44'714.2
2017-Nov-11 15:30N 55°43' E 012°37'1 2.0
2017-Nov-11 15:00N 55°42' E 012°36'0 0.0
2017-Nov-11 14:30N 55°42' E 012°36'0 0.0
2017-Nov-11 14:00N 55°42' E 012°36'0 0.0
2017-Nov-11 13:30N 55°42' E 012°36'0 0.0
2017-Nov-11 13:00N 55°42' E 012°36'0 0.0
2017-Nov-11 12:30N 55°42' E 012°36'0 0.0
2017-Nov-11 12:00N 55°42' E 012°36'0 0.0
2017-Nov-11 11:30N 55°42' E 012°36'0 0.0
2017-Nov-11 11:00N 55°42' E 012°36'0 0.0
2017-Nov-11 10:30N 55°42' E 012°36'0 0.0
2017-Nov-11 10:00N 55°42' E 012°36'0 0.0
2017-Nov-11 09:30N 55°42' E 012°36'0 0.0
2017-Nov-11 09:00N 55°42' E 012°36'0 0.6
2017-Nov-11 08:30N 55°42' E 012°36'5 9.2
2017-Nov-11 08:00N 55°46' E 012°41'714.8
2017-Nov-11 07:31N 55°53' E 012°40'917.4
2017-Nov-11 07:00N 56°02' E 012°39'917.4
2017-Nov-11 06:30N 56°09' E 012°30'815.4
2017-Nov-11 06:01N 56°16' E 012°24'6115.5
2017-Nov-11 02:06N 57°14' E 011°52'216.0
2017-Nov-11 01:57N 57°16' E 011°50'716.2
2017-Nov-11 01:30N 57°22' E 011°42'816.5
2017-Nov-11 01:00N 57°29' E 011°35'917.2
2017-Nov-11 00:30N 57°37' E 011°27'917.4
2017-Nov-11 00:00N 57°45' E 011°20'916.7
2017-Nov-10 23:29N 57°53' E 011°15'816.1
2017-Nov-10 23:00N 58°00' E 011°11'815.9
2017-Nov-10 22:30N 58°08' E 011°06'815.8
2017-Nov-10 22:00N 58°16' E 011°02'815.3
2017-Nov-10 21:30N 58°23' E 010°58'815.7
2017-Nov-10 21:00N 58°30' E 010°54'816.2
2017-Nov-10 20:30N 58°38' E 010°50'816.6
2017-Nov-10 20:00N 58°46' E 010°46'816.2
2017-Nov-10 19:30N 58°54' E 010°43'816.5
2017-Nov-10 19:00N 59°02' E 010°41'816.8
2017-Nov-10 18:30N 59°11' E 010°38'917.2
2017-Nov-10 18:00N 59°19' E 010°35'917.2
2017-Nov-10 17:30N 59°28' E 010°33'917.1
2017-Nov-10 17:00N 59°36' E 010°38'714.6
2017-Nov-10 16:30N 59°43' E 010°35'815.9
2017-Nov-10 16:00N 59°51' E 010°36'610.9
2017-Nov-10 15:30N 59°54' E 010°45'0 0.0
2017-Nov-10 14:59N 59°54' E 010°45'0 0.0
2017-Nov-10 14:29N 59°54' E 010°45'0 0.0
2017-Nov-10 13:59N 59°54' E 010°45'0 0.0
2017-Nov-10 13:29N 59°54' E 010°45'0 0.0
2017-Nov-10 12:59N 59°54' E 010°45'0 0.0
2017-Nov-10 12:29N 59°54' E 010°45'0 0.0
2017-Nov-10 11:59N 59°54' E 010°45'0 0.0
2017-Nov-10 11:29N 59°54' E 010°45'0 0.0
2017-Nov-10 10:59N 59°54' E 010°45'0 0.0
2017-Nov-10 10:29N 59°54' E 010°45'0 0.0
2017-Nov-10 09:59N 59°54' E 010°45'0 0.0
2017-Nov-10 09:29N 59°54' E 010°45'0 0.0
2017-Nov-10 08:59N 59°54' E 010°45'1 1.1
2017-Nov-10 08:29N 59°54' E 010°44'612.9
2017-Nov-10 08:01N 59°49' E 010°35'714.7
2017-Nov-10 07:30N 59°42' E 010°36'714.0
2017-Nov-10 07:00N 59°35' E 010°38'816.1
2017-Nov-10 06:30N 59°27' E 010°34'816.2
2017-Nov-10 06:00N 59°19' E 010°36'816.5
2017-Nov-10 05:30N 59°11' E 010°39'816.4
2017-Nov-10 05:00N 59°03' E 010°41'816.0
2017-Nov-10 04:31N 58°55' E 010°44'815.7
2017-Nov-10 04:00N 58°47' E 010°46'815.5
2017-Nov-10 03:30N 58°40' E 010°48'816.0
2017-Nov-10 03:00N 58°32' E 010°52'815.8
2017-Nov-10 02:30N 58°25' E 010°58'816.1
2017-Nov-10 02:00N 58°17' E 011°01'1316.6
2017-Nov-10 01:13N 58°04' E 011°09'416.7
2017-Nov-10 01:00N 58°01' E 011°11'  

Dump ship's entire track history